Terminal Aerodrome Forecast
Issued by NWS

Home | Current Version | Previous Version | Text Only | Print | Product List | Glossary On
Versions: 1 2 3 4 5 6 7 8 9 10 11 12 13 14 15 16
777
FTUS42 KGSP 241723
TAFGMU
TAF
KGMU 241723Z 2418/2518 02010G18KT P6SM -SHRA BKN008 OVC035
      TEMPO 2418/2421 4SM -SHRA BR SCT008 BKN040
     FM242100 01012G22KT P6SM -SHRA OVC008
     FM250300 01012KT P6SM -SHRA OVC008
     FM250700 01009KT P6SM OVC008 PROB30 2507/2512 4SM -SHRA OVC003
     FM251300 36009KT P6SM BKN010
     FM251600 01009KT P6SM BKN035=

USA.gov is the U.S. government's official web portal to all federal, state and local government web resources and services.